Time,TemperatureF,DewpointF,PressureIn,WindDirection,WindDirectionDegrees,WindSpeedMPH,WindSpeedGustMPH,Humidity,HourlyPrecipIn,Conditions,Clouds,dailyrainin,SoftwareType,DateUTC
2013-11-19 00:12:00,33.0,-99.9,-100.00,SW,228,3.0,5.0,-999,0.00,,,0.00,,2013-11-19 06:12:00,
2013-11-19 00:22:00,33.0,-99.9,-100.00,SW,228,3.0,5.0,-999,0.00,,,0.00,,2013-11-19 06:22:00,
2013-11-19 00:42:00,32.0,-99.9,-100.00,WSW,246,4.0,5.0,-999,0.00,,,0.00,,2013-11-19 06:42:00,
2013-11-19 00:52:00,32.0,-99.9,-100.00,WSW,246,4.0,5.0,-999,0.00,,,0.00,,2013-11-19 06:52:00,
2013-11-19 01:12:00,32.0,-99.9,-100.00,WSW,254,4.0,6.0,-999,0.00,,,0.00,,2013-11-19 07:12:00,
2013-11-19 01:22:00,32.0,-99.9,-100.00,WSW,254,4.0,6.0,-999,0.00,,,0.00,,2013-11-19 07:22:00,
2013-11-19 01:42:00,32.0,-99.9,-100.00,WNW,296,1.0,4.0,-999,0.00,,,0.00,,2013-11-19 07:42:00,
2013-11-19 01:52:00,32.0,-99.9,-100.00,WNW,296,1.0,4.0,-999,0.00,,,0.00,,2013-11-19 07:52:00,
2013-11-19 02:11:00,32.0,-99.9,-100.00,SW,228,3.0,5.0,-999,0.00,,,0.00,,2013-11-19 08:11:00,
2013-11-19 02:22:00,32.0,-99.9,-100.00,SW,228,3.0,5.0,-999,0.00,,,0.00,,2013-11-19 08:22:00,
2013-11-19 02:42:00,31.0,-99.9,-100.00,North,354,2.0,3.0,-999,0.00,,,0.00,,2013-11-19 08:42:00,
2013-11-19 02:52:00,31.0,-99.9,-100.00,North,354,2.0,3.0,-999,0.00,,,0.00,,2013-11-19 08:52:00,
2013-11-19 03:12:00,31.0,-99.9,-100.00,WNW,287,1.0,3.0,-999,0.00,,,0.00,,2013-11-19 09:12:00,
2013-11-19 03:22:00,31.0,-99.9,-100.00,WNW,287,1.0,3.0,-999,0.00,,,0.00,,2013-11-19 09:22:00,
2013-11-19 03:43:00,31.0,-99.9,-100.00,SW,222,0.0,2.0,-999,0.00,,,0.00,,2013-11-19 09:43:00,
2013-11-19 03:53:00,31.0,-99.9,-100.00,SW,222,0.0,2.0,-999,0.00,,,0.00,,2013-11-19 09:53:00,
2013-11-19 04:13:00,30.0,-99.9,-100.00,ENE,73,2.0,4.0,-999,0.00,,,0.00,,2013-11-19 10:13:00,
2013-11-19 04:24:00,30.0,-99.9,-100.00,ENE,73,2.0,4.0,-999,0.00,,,0.00,,2013-11-19 10:24:00,
2013-11-19 04:43:00,30.0,-99.9,-100.00,ESE,112,0.0,2.0,-999,0.00,,,0.00,,2013-11-19 10:43:00,
2013-11-19 04:53:00,30.0,-99.9,-100.00,ESE,112,0.0,2.0,-999,0.00,,,0.00,,2013-11-19 10:53:00,
2013-11-19 05:13:00,29.0,-99.9,-100.00,ESE,103,2.0,3.0,-999,0.00,,,0.00,,2013-11-19 11:13:00,
2013-11-19 05:23:00,29.0,-99.9,-100.00,ESE,103,2.0,3.0,-999,0.00,,,0.00,,2013-11-19 11:23:00,
2013-11-19 05:42:00,29.0,-99.9,-100.00,East,85,2.0,3.0,-999,0.00,,,0.00,,2013-11-19 11:42:00,
2013-11-19 05:52:00,29.0,-99.9,-100.00,East,85,2.0,3.0,-999,0.00,,,0.00,,2013-11-19 11:52:00,
2013-11-19 06:12:00,29.0,-99.9,-100.00,ENE,71,4.0,5.0,-999,0.00,,,0.00,,2013-11-19 12:12:00,
2013-11-19 06:22:00,29.0,-99.9,-100.00,ENE,71,4.0,5.0,-999,0.00,,,0.00,,2013-11-19 12:22:00,
2013-11-19 06:30:00,29.0,-99.9,-100.00,East,87,5.0,7.0,-999,0.00,,,0.00,,2013-11-19 12:30:00,
2013-11-19 06:42:00,29.0,-99.9,-100.00,East,85,5.0,6.0,-999,0.00,,,0.00,,2013-11-19 12:42:00,
2013-11-19 06:52:00,29.0,-99.9,-100.00,East,85,5.0,6.0,-999,0.00,,,0.00,,2013-11-19 12:52:00,
2013-11-19 07:11:00,29.0,-99.9,-100.00,East,87,5.0,7.0,-999,0.00,,,0.00,,2013-11-19 13:11:00,
2013-11-19 07:21:00,29.0,-99.9,-100.00,East,87,5.0,7.0,-999,0.00,,,0.00,,2013-11-19 13:21:00,
2013-11-19 08:00:00,31.0,-99.9,-100.00,East,88,7.0,9.0,-999,0.00,,,0.00,,2013-11-19 14:00:00,
2013-11-19 08:11:00,30.0,-99.9,-100.00,East,89,3.0,5.0,-999,0.00,,,0.00,,2013-11-19 14:11:00,
2013-11-19 08:22:00,30.0,-99.9,-100.00,East,89,3.0,5.0,-999,0.00,,,0.00,,2013-11-19 14:22:00,
2013-11-19 08:42:00,31.0,-99.9,-100.00,East,88,7.0,9.0,-999,0.00,,,0.00,,2013-11-19 14:42:00,
2013-11-19 08:52:00,31.0,-99.9,-100.00,East,88,7.0,9.0,-999,0.00,,,0.00,,2013-11-19 14:52:00,
2013-11-19 09:43:00,36.0,-99.9,-100.00,ESE,117,6.0,8.0,-999,0.00,,,0.00,,2013-11-19 15:43:00,
2013-11-19 09:54:00,36.0,-99.9,-100.00,ESE,117,6.0,8.0,-999,0.00,,,0.00,,2013-11-19 15:54:00,
2013-11-19 10:13:00,35.0,-99.9,-100.00,SE,125,5.0,9.0,-999,0.00,,,0.00,,2013-11-19 16:13:00,
2013-11-19 10:23:00,35.0,-99.9,-100.00,SE,125,5.0,9.0,-999,0.00,,,0.00,,2013-11-19 16:23:00,
2013-11-19 10:43:00,36.0,-99.9,-100.00,ESE,121,6.0,8.0,-999,0.00,,,0.00,,2013-11-19 16:43:00,
2013-11-19 10:53:00,36.0,-99.9,-100.00,ESE,121,6.0,8.0,-999,0.00,,,0.00,,2013-11-19 16:53:00,
2013-11-19 11:12:00,36.0,-99.9,-100.00,ESE,121,8.0,11.0,-999,0.00,,,0.00,,2013-11-19 17:12:00,
2013-11-19 11:23:00,36.0,-99.9,-100.00,ESE,121,8.0,11.0,-999,0.00,,,0.00,,2013-11-19 17:23:00,
2013-11-19 11:43:00,38.0,-99.9,-100.00,ESE,122,5.0,8.0,-999,0.00,,,0.00,,2013-11-19 17:43:00,
2013-11-19 11:53:00,38.0,-99.9,-100.00,ESE,122,5.0,8.0,-999,0.00,,,0.00,,2013-11-19 17:53:00,
2013-11-19 12:12:00,39.0,-99.9,-100.00,ESE,116,8.0,10.0,-999,0.00,,,0.00,,2013-11-19 18:12:00,
2013-11-19 12:23:00,39.0,-99.9,-100.00,ESE,116,8.0,10.0,-999,0.00,,,0.00,,2013-11-19 18:23:00,
2013-11-19 12:42:00,40.0,-99.9,-100.00,ESE,119,7.0,10.0,-999,0.00,,,0.00,,2013-11-19 18:42:00,
2013-11-19 12:52:00,40.0,-99.9,-100.00,ESE,119,7.0,10.0,-999,0.00,,,0.00,,2013-11-19 18:52:00,
2013-11-19 13:11:00,42.0,-99.9,-100.00,ESE,112,7.0,10.0,-999,0.00,,,0.00,,2013-11-19 19:11:00,
2013-11-19 13:22:00,42.0,-99.9,-100.00,ESE,112,7.0,10.0,-999,0.00,,,0.00,,2013-11-19 19:22:00,
2013-11-19 13:42:00,42.0,-99.9,-100.00,SE,130,6.0,8.0,-999,0.00,,,0.00,,2013-11-19 19:42:00,
2013-11-19 13:52:00,42.0,-99.9,-100.00,SE,130,6.0,8.0,-999,0.00,,,0.00,,2013-11-19 19:52:00,
2013-11-19 14:12:00,44.0,-99.9,-100.00,SE,132,5.0,10.0,-999,0.00,,,0.00,,2013-11-19 20:12:00,
2013-11-19 14:22:00,44.0,-99.9,-100.00,SE,132,5.0,10.0,-999,0.00,,,0.00,,2013-11-19 20:22:00,
2013-11-19 14:42:00,45.0,-99.9,-100.00,SE,131,6.0,9.0,-999,0.00,,,0.00,,2013-11-19 20:42:00,
2013-11-19 14:52:00,45.0,-99.9,-100.00,SE,131,6.0,9.0,-999,0.00,,,0.00,,2013-11-19 20:52:00,
2013-11-19 15:11:00,46.0,-99.9,-100.00,ESE,117,9.0,12.0,-999,0.00,,,0.00,,2013-11-19 21:11:00,
2013-11-19 15:22:00,46.0,-99.9,-100.00,ESE,117,9.0,12.0,-999,0.00,,,0.00,,2013-11-19 21:22:00,
2013-11-19 15:43:00,46.0,-99.9,-100.00,ESE,111,9.0,12.0,-999,0.00,,,0.00,,2013-11-19 21:43:00,
2013-11-19 15:54:00,46.0,-99.9,-100.00,ESE,111,9.0,12.0,-999,0.00,,,0.00,,2013-11-19 21:54:00,
2013-11-19 16:13:00,46.0,-99.9,-100.00,ESE,118,8.0,11.0,-999,0.00,,,0.00,,2013-11-19 22:13:00,
2013-11-19 16:23:00,46.0,-99.9,-100.00,ESE,118,8.0,11.0,-999,0.00,,,0.00,,2013-11-19 22:23:00,
2013-11-19 16:43:00,45.0,-99.9,-100.00,SE,124,7.0,9.0,-999,0.00,,,0.00,,2013-11-19 22:43:00,
2013-11-19 16:53:00,45.0,-99.9,-100.00,SE,124,7.0,9.0,-999,0.00,,,0.00,,2013-11-19 22:53:00,
2013-11-19 17:12:00,43.0,-99.9,-100.00,ESE,115,8.0,11.0,-999,0.00,,,0.00,,2013-11-19 23:12:00,
2013-11-19 17:22:00,43.0,-99.9,-100.00,ESE,115,8.0,11.0,-999,0.00,,,0.00,,2013-11-19 23:22:00,
2013-11-19 17:43:00,42.0,-99.9,-100.00,ESE,119,8.0,10.0,-999,0.00,,,0.00,,2013-11-19 23:43:00,
2013-11-19 17:52:00,42.0,-99.9,-100.00,ESE,119,8.0,10.0,-999,0.00,,,0.00,,2013-11-19 23:52:00,
2013-11-19 18:12:00,40.0,-99.9,-100.00,ESE,112,8.0,13.0,-999,0.00,,,0.00,,2013-11-20 00:12:00,
2013-11-19 18:22:00,40.0,-99.9,-100.00,ESE,112,8.0,13.0,-999,0.00,,,0.00,,2013-11-20 00:22:00,
2013-11-19 18:42:00,40.0,-99.9,-100.00,ESE,114,9.0,13.0,-999,0.00,,,0.00,,2013-11-20 00:42:00,
2013-11-19 18:52:00,40.0,-99.9,-100.00,ESE,114,9.0,13.0,-999,0.00,,,0.00,,2013-11-20 00:52:00,
2013-11-19 19:11:00,40.0,-99.9,-100.00,ESE,121,7.0,11.0,-999,0.00,,,0.00,,2013-11-20 01:11:00,
2013-11-19 19:22:00,40.0,-99.9,-100.00,ESE,121,7.0,11.0,-999,0.00,,,0.00,,2013-11-20 01:22:00,
2013-11-19 19:42:00,39.0,-99.9,-100.00,ESE,121,3.0,5.0,-999,0.00,,,0.00,,2013-11-20 01:42:00,
2013-11-19 19:52:00,39.0,-99.9,-100.00,ESE,121,3.0,5.0,-999,0.00,,,0.00,,2013-11-20 01:52:00,
2013-11-19 20:11:00,38.0,-99.9,-100.00,ESE,105,4.0,7.0,-999,0.00,,,0.00,,2013-11-20 02:11:00,
2013-11-19 20:22:00,38.0,-99.9,-100.00,ESE,105,4.0,7.0,-999,0.00,,,0.00,,2013-11-20 02:22:00,
2013-11-19 20:42:00,37.0,-99.9,-100.00,ESE,113,6.0,11.0,-999,0.00,,,0.00,,2013-11-20 02:42:00,
2013-11-19 20:53:00,37.0,-99.9,-100.00,ESE,113,6.0,11.0,-999,0.00,,,0.00,,2013-11-20 02:53:00,
2013-11-19 21:11:00,37.0,-99.9,-100.00,ESE,106,7.0,10.0,-999,0.00,,,0.00,,2013-11-20 03:11:00,
2013-11-19 21:22:00,37.0,-99.9,-100.00,ESE,106,7.0,10.0,-999,0.00,,,0.00,,2013-11-20 03:22:00,
2013-11-19 21:44:00,37.0,-99.9,-100.00,ESE,117,5.0,7.0,-999,0.00,,,0.00,,2013-11-20 03:44:00,
2013-11-19 21:54:00,37.0,-99.9,-100.00,ESE,117,5.0,7.0,-999,0.00,,,0.00,,2013-11-20 03:54:00,
2013-11-19 22:13:00,36.0,-99.9,-100.00,ESE,114,8.0,13.0,-999,0.00,,,0.00,,2013-11-20 04:13:00,
2013-11-19 22:23:00,36.0,-99.9,-100.00,ESE,114,8.0,13.0,-999,0.00,,,0.00,,2013-11-20 04:23:00,
2013-11-19 22:43:00,36.0,-99.9,-100.00,SE,131,6.0,9.0,-999,0.00,,,0.00,,2013-11-20 04:43:00,
2013-11-19 22:53:00,36.0,-99.9,-100.00,SE,131,6.0,9.0,-999,0.00,,,0.00,,2013-11-20 04:53:00,
2013-11-19 23:12:00,36.0,-99.9,-100.00,ESE,122,4.0,9.0,-999,0.00,,,0.00,,2013-11-20 05:12:00,
2013-11-19 23:22:00,36.0,-99.9,-100.00,ESE,122,4.0,9.0,-999,0.00,,,0.00,,2013-11-20 05:22:00,
2013-11-19 23:43:00,35.0,-99.9,-100.00,SE,128,4.0,7.0,-999,0.00,,,0.00,,2013-11-20 05:43:00,
2013-11-19 23:53:00,35.0,-99.9,-100.00,SE,128,4.0,7.0,-999,0.00,,,0.00,,2013-11-20 05:53:00,